createdAt,value
2019-01-31T00:01:49.843Z,20.70
2019-01-31T00:02:49.617Z,18.40
2019-01-31T00:04:41.991Z,22.90
2019-01-31T00:05:42.003Z,21.40
2019-01-31T00:07:34.536Z,21.70
2019-01-31T00:08:45.196Z,22.30
2019-01-31T00:10:27.665Z,23.40
2019-01-31T00:11:27.670Z,26.60
2019-01-31T00:13:20.445Z,24.20
2019-01-31T00:14:20.199Z,24.90
2019-01-31T00:16:13.521Z,22.20
2019-01-31T00:17:13.366Z,22.50
2019-01-31T00:19:07.172Z,26.40
2019-01-31T00:20:06.958Z,23.30
2019-01-31T00:21:58.760Z,24.50
2019-01-31T00:22:58.527Z,26.50
2019-01-31T00:24:52.109Z,26.80
2019-01-31T00:25:51.866Z,26.90
2019-01-31T00:27:44.465Z,25.80
2019-01-31T00:28:44.210Z,23.80
2019-01-31T00:30:36.762Z,23.00
2019-01-31T00:31:36.778Z,25.50
2019-01-31T00:33:29.925Z,26.30
2019-01-31T00:34:30.140Z,22.50
2019-01-31T00:36:22.488Z,27.50
2019-01-31T00:37:22.513Z,26.30
2019-01-31T00:39:15.822Z,25.80
2019-01-31T00:40:15.852Z,26.50
2019-01-31T00:42:08.140Z,25.40
2019-01-31T00:43:08.158Z,28.00
2019-01-31T00:45:00.472Z,30.80
2019-01-31T00:46:00.496Z,30.60
2019-01-31T00:47:53.097Z,26.60
2019-01-31T00:48:52.577Z,26.60
2019-01-31T00:50:45.936Z,27.60
2019-01-31T00:51:46.195Z,31.00
2019-01-31T00:53:38.432Z,24.30
2019-01-31T00:54:37.795Z,27.70
2019-01-31T00:56:30.138Z,30.30
2019-01-31T00:57:30.382Z,30.40
2019-01-31T00:59:22.985Z,27.40
2019-01-31T01:00:22.698Z,27.30
2019-01-31T01:02:15.045Z,26.50
2019-01-31T01:03:14.788Z,31.20
2019-01-31T01:05:07.587Z,33.30
2019-01-31T01:06:07.160Z,30.80
2019-01-31T01:07:59.731Z,31.90
2019-01-31T01:09:07.673Z,31.90
2019-01-31T01:10:52.273Z,31.80
2019-01-31T01:11:52.061Z,32.30
2019-01-31T01:13:44.177Z,33.60
2019-01-31T01:14:44.371Z,33.20
2019-01-31T01:16:37.718Z,30.90
2019-01-31T01:17:37.702Z,32.00
2019-01-31T01:19:30.081Z,36.60
2019-01-31T01:20:29.846Z,33.10
2019-01-31T01:22:22.599Z,28.40
2019-01-31T01:23:22.439Z,30.70
2019-01-31T01:25:14.775Z,33.70
2019-01-31T01:26:14.697Z,31.40
2019-01-31T01:28:08.077Z,29.40
2019-01-31T01:29:08.091Z,31.40
2019-01-31T01:31:01.222Z,30.10
2019-01-31T01:32:01.393Z,31.40
2019-01-31T01:33:53.975Z,28.60
2019-01-31T01:35:01.091Z,30.50
2019-01-31T01:36:46.411Z,30.40
2019-01-31T01:37:46.396Z,29.90
2019-01-31T01:39:39.214Z,32.10
2019-01-31T01:40:38.971Z,32.90
2019-01-31T01:42:31.086Z,33.80
2019-01-31T01:43:31.336Z,32.90
2019-01-31T01:45:24.956Z,30.10
2019-01-31T01:46:24.442Z,31.40
2019-01-31T01:48:17.005Z,35.20
2019-01-31T01:49:16.813Z,38.20
2019-01-31T01:51:09.548Z,33.90
2019-01-31T01:52:09.141Z,32.90
2019-01-31T01:54:01.703Z,31.40
2019-01-31T01:55:01.472Z,32.70
2019-01-31T01:56:55.271Z,30.20
2019-01-31T01:57:54.776Z,33.30
2019-01-31T01:59:47.398Z,38.60
2019-01-31T02:00:47.365Z,33.70
2019-01-31T02:02:40.924Z,33.80
2019-01-31T02:03:40.761Z,36.20
2019-01-31T02:05:34.096Z,34.50
2019-01-31T02:06:33.842Z,34.90
2019-01-31T02:08:26.619Z,34.40
2019-01-31T02:09:30.225Z,39.30
2019-01-31T02:11:18.797Z,32.80
2019-01-31T02:12:18.735Z,39.60
2019-01-31T02:14:12.047Z,35.10
2019-01-31T02:15:12.052Z,41.80
2019-01-31T02:17:05.214Z,34.50
2019-01-31T02:18:05.468Z,39.90
2019-01-31T02:19:57.725Z,38.10
2019-01-31T02:20:57.760Z,38.20
2019-01-31T02:22:50.073Z,42.10
2019-01-31T02:23:50.094Z,41.40
2019-01-31T02:25:43.640Z,42.80
2019-01-31T02:26:43.419Z,43.80
2019-01-31T02:28:36.839Z,40.20
2019-01-31T02:29:36.841Z,46.80
2019-01-31T02:31:29.512Z,43.10
2019-01-31T02:32:29.135Z,40.70
2019-01-31T02:34:21.286Z,44.40
2019-01-31T02:35:21.263Z,42.00
2019-01-31T02:37:14.261Z,44.90
2019-01-31T02:38:14.245Z,42.40
2019-01-31T02:40:06.604Z,44.80
2019-01-31T02:41:06.619Z,45.60
2019-01-31T02:42:59.161Z,45.30
2019-01-31T02:43:58.921Z,41.70
2019-01-31T02:45:51.251Z,47.00
2019-01-31T02:46:51.275Z,46.50
2019-01-31T02:48:43.582Z,47.70
2019-01-31T02:49:43.406Z,44.90
2019-01-31T02:51:35.700Z,50.90
2019-01-31T02:52:35.705Z,42.40
2019-01-31T02:54:28.660Z,46.70
2019-01-31T02:55:28.404Z,50.30
2019-01-31T02:57:20.756Z,49.90
2019-01-31T02:58:21.022Z,50.30
2019-01-31T03:00:13.486Z,48.20
2019-01-31T03:01:13.323Z,49.60
2019-01-31T03:03:05.041Z,49.70
2019-01-31T03:04:05.182Z,48.30
2019-01-31T03:05:57.746Z,46.40
2019-01-31T03:06:57.267Z,49.90
2019-01-31T03:08:49.613Z,52.60
2019-01-31T03:09:54.903Z,55.80
2019-01-31T03:11:42.375Z,55.30
2019-01-31T03:12:42.189Z,54.20
2019-01-31T03:14:35.551Z,48.50
2019-01-31T03:15:35.534Z,53.10
2019-01-31T03:17:28.138Z,50.30
2019-01-31T03:18:27.650Z,53.50
2019-01-31T03:20:21.304Z,55.50
2019-01-31T03:21:21.277Z,50.30
2019-01-31T03:23:14.804Z,47.40
2019-01-31T03:24:14.577Z,52.70
2019-01-31T03:27:38.752Z,55.20
2019-01-31T03:28:38.982Z,55.90
2019-01-31T03:30:32.318Z,62.90
2019-01-31T03:31:32.349Z,58.20
2019-01-31T03:33:24.704Z,63.60
2019-01-31T03:34:24.450Z,62.80
2019-01-31T03:36:17.058Z,63.60
2019-01-31T03:37:17.060Z,60.80
2019-01-31T03:39:09.872Z,57.00
2019-01-31T03:40:09.884Z,63.10
2019-01-31T03:42:03.229Z,61.20
2019-01-31T03:43:03.022Z,64.90
2019-01-31T03:44:56.574Z,61.90
2019-01-31T03:45:56.630Z,59.90
2019-01-31T03:47:49.193Z,59.40
2019-01-31T03:48:48.746Z,55.50
2019-01-31T03:50:42.139Z,63.70
2019-01-31T03:51:42.085Z,62.30
2019-01-31T03:53:34.904Z,59.40
2019-01-31T03:54:34.684Z,58.00
2019-01-31T03:57:58.159Z,71.40
2019-01-31T03:58:58.070Z,67.80
2019-01-31T04:00:51.646Z,60.60
2019-01-31T04:01:51.425Z,61.20
2019-01-31T04:03:43.634Z,65.70
2019-01-31T04:04:43.653Z,67.10
2019-01-31T04:06:37.228Z,64.00
2019-01-31T04:07:36.721Z,64.90
2019-01-31T04:09:30.078Z,61.00
2019-01-31T04:10:30.083Z,62.40
2019-01-31T04:12:22.669Z,60.90
2019-01-31T04:13:22.417Z,63.90
2019-01-31T04:15:15.993Z,66.90
2019-01-31T04:16:15.982Z,58.00
2019-01-31T04:18:08.293Z,63.70
2019-01-31T04:19:08.298Z,65.00
2019-01-31T04:21:02.023Z,60.50
2019-01-31T04:22:01.686Z,64.30
2019-01-31T04:23:54.586Z,63.90
2019-01-31T04:24:54.339Z,64.50
2019-01-31T04:26:46.722Z,67.80
2019-01-31T04:27:46.453Z,65.90
2019-01-31T04:29:39.002Z,65.50
2019-01-31T04:30:38.796Z,57.30
2019-01-31T04:32:32.359Z,63.20
2019-01-31T04:33:32.407Z,61.20
2019-01-31T04:35:25.981Z,66.50
2019-01-31T04:36:26.098Z,58.70
2019-01-31T04:38:19.999Z,64.00
2019-01-31T04:39:18.111Z,60.00
2019-01-31T04:41:10.642Z,61.90
2019-01-31T04:42:10.195Z,65.20
2019-01-31T04:44:03.561Z,61.10
2019-01-31T04:45:03.530Z,64.90
2019-01-31T04:46:56.035Z,60.50
2019-01-31T04:47:56.539Z,60.10
2019-01-31T04:49:48.228Z,61.30
2019-01-31T04:50:48.217Z,56.90
2019-01-31T04:52:41.050Z,61.80
2019-01-31T04:53:40.543Z,61.40
2019-01-31T04:55:33.060Z,62.10
2019-01-31T04:56:33.110Z,60.00
2019-01-31T04:58:25.471Z,67.60
2019-01-31T04:59:25.531Z,61.00
2019-01-31T05:01:18.847Z,57.70
2019-01-31T05:02:18.871Z,61.50
2019-01-31T05:04:11.397Z,52.80
2019-01-31T05:05:11.134Z,56.10
2019-01-31T05:07:04.655Z,58.50
2019-01-31T05:08:04.528Z,57.10
2019-01-31T05:09:57.405Z,51.40
2019-01-31T05:10:56.960Z,51.00
2019-01-31T05:12:50.582Z,56.50
2019-01-31T05:13:50.346Z,61.60
2019-01-31T05:15:43.090Z,52.90
2019-01-31T05:16:42.898Z,52.00
2019-01-31T05:18:35.247Z,55.50
2019-01-31T05:19:35.199Z,56.00
2019-01-31T05:21:28.518Z,51.50
2019-01-31T05:22:28.353Z,53.10
2019-01-31T05:24:20.929Z,50.80
2019-01-31T05:25:20.650Z,47.40
2019-01-31T05:27:14.232Z,54.80
2019-01-31T05:28:14.292Z,50.90
2019-01-31T05:30:06.559Z,58.80
2019-01-31T05:31:06.623Z,52.80
2019-01-31T05:32:59.136Z,48.70
2019-01-31T05:33:58.666Z,46.30
2019-01-31T05:35:51.394Z,50.70
2019-01-31T05:36:51.390Z,49.70
2019-01-31T05:38:45.228Z,50.10
2019-01-31T05:39:44.916Z,49.20
2019-01-31T05:41:37.604Z,52.00
2019-01-31T05:42:37.813Z,50.40
2019-01-31T05:44:30.392Z,52.50
2019-01-31T05:45:29.903Z,48.20
2019-01-31T05:47:23.257Z,52.00
2019-01-31T05:48:23.474Z,52.40
2019-01-31T05:50:16.050Z,48.10
2019-01-31T05:51:15.586Z,44.90
2019-01-31T05:53:08.983Z,47.10
2019-01-31T05:54:09.186Z,46.00
2019-01-31T05:56:02.639Z,46.60
2019-01-31T05:57:02.293Z,44.00
2019-01-31T05:58:54.880Z,43.90
2019-01-31T05:59:54.881Z,41.00
2019-01-31T06:01:47.726Z,43.70
2019-01-31T06:02:47.457Z,48.10
2019-01-31T06:04:39.292Z,44.10
2019-01-31T06:05:39.543Z,44.70
2019-01-31T06:07:32.178Z,43.10
2019-01-31T06:08:31.964Z,43.70
2019-01-31T06:10:25.363Z,45.00
2019-01-31T06:11:25.607Z,38.80
2019-01-31T06:13:17.911Z,40.20
2019-01-31T06:14:17.899Z,41.90
2019-01-31T06:16:10.223Z,44.00
2019-01-31T06:17:10.016Z,44.50
2019-01-31T06:19:03.829Z,45.50
2019-01-31T06:20:03.335Z,47.60
2019-01-31T06:21:56.732Z,44.80
2019-01-31T06:22:56.715Z,42.10
2019-01-31T06:24:49.318Z,43.10
2019-01-31T06:25:49.244Z,43.90
2019-01-31T06:27:42.434Z,41.50
2019-01-31T06:28:42.632Z,39.80
2019-01-31T06:30:34.931Z,39.50
2019-01-31T06:31:34.765Z,36.70
2019-01-31T06:33:28.542Z,42.50
2019-01-31T06:34:28.078Z,40.80
2019-01-31T06:36:21.926Z,39.70
2019-01-31T06:37:21.640Z,43.30
2019-01-31T06:39:14.056Z,34.90
2019-01-31T06:40:14.004Z,34.80
2019-01-31T06:42:06.316Z,37.80
2019-01-31T06:43:06.314Z,37.50
2019-01-31T06:44:58.656Z,36.30
2019-01-31T06:45:58.697Z,37.40
2019-01-31T06:47:50.989Z,40.70
2019-01-31T06:48:50.743Z,41.20
2019-01-31T06:50:44.126Z,36.50
2019-01-31T06:51:44.330Z,33.70
2019-01-31T06:53:36.876Z,40.60
2019-01-31T06:54:36.711Z,35.50
2019-01-31T06:56:28.835Z,36.10
2019-01-31T06:57:28.834Z,36.50
2019-01-31T06:59:21.653Z,37.90
2019-01-31T07:00:21.362Z,35.50
2019-01-31T07:02:14.511Z,38.70
2019-01-31T07:03:14.712Z,35.20
2019-01-31T07:05:08.445Z,35.10
2019-01-31T07:06:07.824Z,33.30
2019-01-31T07:08:00.193Z,32.70
2019-01-31T07:09:00.155Z,31.70
2019-01-31T07:10:53.719Z,27.80
2019-01-31T07:11:53.736Z,34.50
2019-01-31T07:13:45.887Z,33.10
2019-01-31T07:14:47.719Z,35.20
2019-01-31T07:16:38.427Z,34.20
2019-01-31T07:17:38.171Z,33.10
2019-01-31T07:19:31.825Z,30.60
2019-01-31T07:20:31.759Z,33.30
2019-01-31T07:22:24.103Z,30.60
2019-01-31T07:23:23.877Z,31.40
2019-01-31T07:25:17.443Z,27.50
2019-01-31T07:26:17.205Z,28.20
2019-01-31T07:28:11.011Z,35.40
2019-01-31T07:29:10.553Z,32.60
2019-01-31T07:31:03.153Z,29.40
2019-01-31T07:32:03.667Z,29.00
2019-01-31T07:33:55.506Z,31.20
2019-01-31T07:34:55.243Z,27.40
2019-01-31T07:36:47.565Z,30.90
2019-01-31T07:37:47.549Z,31.90
2019-01-31T07:39:40.136Z,28.20
2019-01-31T07:40:39.927Z,27.00
2019-01-31T07:42:32.761Z,30.50
2019-01-31T07:43:33.003Z,28.20
2019-01-31T07:45:26.306Z,33.20
2019-01-31T07:46:26.130Z,27.90
2019-01-31T07:48:19.699Z,30.30
2019-01-31T07:49:19.466Z,33.90
2019-01-31T07:51:11.993Z,24.30
2019-01-31T07:52:11.801Z,24.10
2019-01-31T07:54:05.391Z,31.50
2019-01-31T07:55:05.373Z,28.80
2019-01-31T07:56:57.706Z,23.90
2019-01-31T07:57:57.485Z,25.50
2019-01-31T07:59:50.175Z,23.90
2019-01-31T08:00:50.185Z,27.30
2019-01-31T08:02:43.738Z,24.50
2019-01-31T08:03:43.494Z,26.40
2019-01-31T08:05:36.103Z,28.40
2019-01-31T08:06:35.842Z,29.10
2019-01-31T08:08:28.650Z,32.70
2019-01-31T08:09:28.409Z,30.90
2019-01-31T08:11:20.520Z,25.50
2019-01-31T08:12:20.541Z,26.90
2019-01-31T08:14:13.393Z,26.20
2019-01-31T08:15:13.070Z,24.80
2019-01-31T08:17:05.420Z,24.50
2019-01-31T08:18:05.433Z,25.00
2019-01-31T08:19:58.734Z,24.90
2019-01-31T08:20:58.555Z,26.80
2019-01-31T08:22:51.756Z,25.50
2019-01-31T08:23:51.421Z,27.50
2019-01-31T08:25:44.193Z,23.50
2019-01-31T08:26:44.021Z,25.40
2019-01-31T08:28:36.294Z,20.10
2019-01-31T08:29:36.049Z,22.70
2019-01-31T08:31:28.847Z,22.60
2019-01-31T08:32:28.383Z,22.80
2019-01-31T08:34:21.017Z,26.90
2019-01-31T08:35:20.981Z,23.30
2019-01-31T08:37:14.472Z,22.30
2019-01-31T08:38:14.242Z,25.70
2019-01-31T08:40:06.681Z,21.00
2019-01-31T08:41:06.966Z,22.70
2019-01-31T08:43:00.235Z,27.40
2019-01-31T08:44:00.225Z,21.40
2019-01-31T08:45:52.599Z,23.70
2019-01-31T08:46:52.563Z,21.80
2019-01-31T08:48:45.109Z,17.90
2019-01-31T08:49:44.700Z,20.80
2019-01-31T08:51:37.492Z,20.50
2019-01-31T08:52:37.320Z,22.30
2019-01-31T08:54:29.861Z,19.20
2019-01-31T08:55:29.644Z,22.00
2019-01-31T08:57:23.013Z,22.60
2019-01-31T08:58:22.758Z,22.00
2019-01-31T09:00:15.296Z,21.50
2019-01-31T09:01:15.116Z,22.90
2019-01-31T09:03:08.484Z,20.60
2019-01-31T09:04:08.716Z,25.70
2019-01-31T09:06:01.397Z,18.90
2019-01-31T09:07:01.176Z,20.90
2019-01-31T09:08:53.791Z,23.60
2019-01-31T09:09:53.766Z,22.70
2019-01-31T09:11:47.109Z,19.90
2019-01-31T09:12:47.058Z,22.80
2019-01-31T09:14:38.963Z,19.80
2019-01-31T09:15:38.732Z,20.40
2019-01-31T09:17:31.538Z,21.90
2019-01-31T09:18:31.084Z,18.10
2019-01-31T09:20:24.435Z,21.80
2019-01-31T09:21:24.639Z,23.00
2019-01-31T09:24:49.322Z,19.30
2019-01-31T09:25:48.781Z,18.10
2019-01-31T09:27:41.406Z,18.60
2019-01-31T09:28:41.146Z,18.00
2019-01-31T09:30:33.928Z,21.00
2019-01-31T09:31:33.440Z,21.10
2019-01-31T09:33:25.793Z,21.20
2019-01-31T09:34:26.036Z,20.20
2019-01-31T09:36:18.558Z,23.90
2019-01-31T09:37:18.115Z,20.40
2019-01-31T09:39:11.254Z,21.00
2019-01-31T09:40:11.197Z,21.40
2019-01-31T09:42:03.824Z,23.00
2019-01-31T09:43:03.313Z,23.20
2019-01-31T09:44:56.462Z,24.20
2019-01-31T09:45:56.418Z,22.40
2019-01-31T09:47:48.727Z,25.90
2019-01-31T09:48:48.495Z,26.20
2019-01-31T09:50:40.938Z,23.20
2019-01-31T09:51:41.062Z,24.90
2019-01-31T09:53:34.409Z,24.50
2019-01-31T09:54:34.431Z,24.60
2019-01-31T09:56:27.562Z,23.70
2019-01-31T09:57:27.571Z,24.10
2019-01-31T09:59:20.098Z,24.90
2019-01-31T10:00:27.282Z,25.20
2019-01-31T10:02:13.384Z,24.00
2019-01-31T10:03:13.466Z,24.60
2019-01-31T10:05:06.810Z,29.40
2019-01-31T10:06:06.869Z,28.90
2019-01-31T10:08:00.148Z,26.40
2019-01-31T10:08:59.909Z,32.10
2019-01-31T10:10:52.550Z,27.40
2019-01-31T10:11:52.515Z,28.10
2019-01-31T10:13:45.712Z,27.90
2019-01-31T10:14:45.718Z,32.80
2019-01-31T10:16:39.423Z,31.70
2019-01-31T10:17:39.201Z,28.90
2019-01-31T10:19:31.366Z,28.00
2019-01-31T10:20:31.590Z,26.00
2019-01-31T10:22:23.726Z,33.40
2019-01-31T10:23:23.413Z,33.70
2019-01-31T10:25:16.491Z,31.10
2019-01-31T10:26:16.729Z,29.90
2019-01-31T10:28:10.055Z,30.80
2019-01-31T10:29:10.086Z,32.60
2019-01-31T10:31:02.205Z,32.90
2019-01-31T10:32:02.179Z,30.70
2019-01-31T10:33:55.339Z,31.80
2019-01-31T10:34:54.871Z,33.30
2019-01-31T10:36:47.419Z,29.20
2019-01-31T10:37:47.192Z,32.60
2019-01-31T10:39:40.743Z,27.70
2019-01-31T10:40:40.557Z,28.00
2019-01-31T10:42:33.146Z,32.60
2019-01-31T10:43:32.889Z,29.90
2019-01-31T10:45:25.674Z,31.40
2019-01-31T10:46:25.442Z,37.00
2019-01-31T10:48:18.563Z,35.60
2019-01-31T10:49:18.810Z,36.60
2019-01-31T10:51:11.659Z,32.90
2019-01-31T10:52:11.746Z,33.90
2019-01-31T10:54:03.605Z,32.30
2019-01-31T10:55:03.619Z,32.50
2019-01-31T10:56:56.158Z,35.10
2019-01-31T10:57:55.948Z,35.10
2019-01-31T10:59:48.263Z,30.80
2019-01-31T11:00:48.507Z,34.80
2019-01-31T11:02:41.836Z,34.10
2019-01-31T11:03:41.622Z,35.70
2019-01-31T11:05:35.400Z,36.60
2019-01-31T11:06:35.257Z,33.20
2019-01-31T11:08:27.661Z,37.20
2019-01-31T11:09:27.397Z,38.50
2019-01-31T11:11:19.980Z,31.70
2019-01-31T11:12:19.994Z,35.30
2019-01-31T11:14:12.556Z,39.30
2019-01-31T11:15:12.331Z,39.00
2019-01-31T11:17:05.690Z,34.50
2019-01-31T11:18:05.467Z,37.80
2019-01-31T11:19:58.226Z,35.50
2019-01-31T11:20:57.784Z,36.80
2019-01-31T11:22:51.166Z,35.80
2019-01-31T11:23:51.164Z,37.60
2019-01-31T11:25:44.298Z,38.30
2019-01-31T11:26:43.811Z,38.50
2019-01-31T11:28:37.242Z,37.60
2019-01-31T11:29:37.475Z,41.80
2019-01-31T11:31:29.785Z,37.40
2019-01-31T11:32:29.812Z,41.10
2019-01-31T11:34:32.405Z,37.00
2019-01-31T11:35:22.101Z,41.80
2019-01-31T11:37:14.687Z,38.60
2019-01-31T11:38:14.460Z,35.60
2019-01-31T11:40:07.595Z,42.30
2019-01-31T11:41:07.556Z,42.90
2019-01-31T11:43:11.330Z,39.20
2019-01-31T11:43:59.933Z,37.80
2019-01-31T11:45:54.009Z,40.90
2019-01-31T11:46:54.034Z,37.80
2019-01-31T11:48:46.667Z,36.60
2019-01-31T11:49:46.117Z,39.20
2019-01-31T11:51:38.917Z,38.50
2019-01-31T11:52:38.495Z,37.00
2019-01-31T11:54:31.991Z,38.00
2019-01-31T11:55:32.106Z,39.00
2019-01-31T11:57:25.168Z,41.40
2019-01-31T11:58:25.384Z,39.70
2019-01-31T12:00:18.146Z,41.80
2019-01-31T12:01:17.486Z,37.70
2019-01-31T12:03:10.896Z,36.50
2019-01-31T12:04:11.054Z,43.70
2019-01-31T12:06:03.668Z,39.00
2019-01-31T12:07:03.451Z,40.70
2019-01-31T12:08:56.555Z,36.30
2019-01-31T12:09:56.514Z,37.40
2019-01-31T12:11:49.350Z,45.60
2019-01-31T12:12:49.078Z,38.40
2019-01-31T12:14:41.224Z,40.70
2019-01-31T12:15:41.479Z,37.50
2019-01-31T12:17:34.305Z,41.70
2019-01-31T12:18:34.323Z,41.80
2019-01-31T12:20:26.406Z,38.40
2019-01-31T12:21:26.620Z,39.30
2019-01-31T12:23:20.242Z,36.90
2019-01-31T12:24:19.783Z,40.70
2019-01-31T12:26:13.939Z,40.90
2019-01-31T12:27:12.105Z,40.60
2019-01-31T12:29:05.477Z,37.20
2019-01-31T12:30:05.198Z,37.00
2019-01-31T12:31:57.346Z,40.10
2019-01-31T12:32:57.552Z,39.60
2019-01-31T12:34:50.152Z,38.30
2019-01-31T12:35:49.904Z,35.90
2019-01-31T12:37:42.026Z,43.80
2019-01-31T12:38:42.238Z,38.60
2019-01-31T12:40:35.850Z,41.00
2019-01-31T12:41:35.324Z,36.10
2019-01-31T12:43:34.647Z,39.30
2019-01-31T12:44:27.650Z,41.80
2019-01-31T12:46:21.237Z,39.00
2019-01-31T12:47:21.296Z,44.40
2019-01-31T12:49:13.365Z,45.90
2019-01-31T12:50:13.624Z,43.20
2019-01-31T12:52:05.940Z,44.40
2019-01-31T12:53:05.959Z,49.10
2019-01-31T12:54:58.320Z,41.90
2019-01-31T12:55:58.015Z,46.30
2019-01-31T12:57:50.571Z,42.00
2019-01-31T12:58:50.602Z,42.20
2019-01-31T13:00:43.961Z,43.10
2019-01-31T13:01:43.706Z,40.00
2019-01-31T13:03:37.515Z,41.70
2019-01-31T13:04:37.335Z,44.80
2019-01-31T13:06:29.429Z,41.20
2019-01-31T13:07:29.425Z,42.30
2019-01-31T13:09:21.981Z,42.30
2019-01-31T13:10:21.750Z,44.70
2019-01-31T13:12:15.383Z,44.10
2019-01-31T13:13:15.338Z,40.10
2019-01-31T13:15:08.661Z,41.90
2019-01-31T13:16:08.433Z,41.90
2019-01-31T13:18:02.065Z,43.40
2019-01-31T13:19:01.806Z,40.10
2019-01-31T13:20:55.382Z,45.90
2019-01-31T13:21:55.345Z,43.60
2019-01-31T13:23:48.123Z,44.50
2019-01-31T13:24:48.120Z,47.60
2019-01-31T13:26:41.706Z,36.90
2019-01-31T13:27:41.241Z,43.40
2019-01-31T13:29:34.560Z,45.20
2019-01-31T13:30:34.592Z,42.40
2019-01-31T13:32:27.102Z,35.40
2019-01-31T13:33:26.932Z,40.80
2019-01-31T13:35:20.246Z,46.80
2019-01-31T13:36:20.522Z,46.20
2019-01-31T13:38:13.086Z,43.80
2019-01-31T13:39:12.590Z,42.90
2019-01-31T13:41:05.976Z,39.00
2019-01-31T13:42:05.972Z,42.00
2019-01-31T13:43:58.737Z,44.00
2019-01-31T13:44:58.551Z,38.50
2019-01-31T13:46:51.383Z,46.30
2019-01-31T13:47:51.125Z,44.40
2019-01-31T13:49:44.965Z,45.30
2019-01-31T13:50:44.727Z,46.70
2019-01-31T13:52:36.816Z,41.00
2019-01-31T13:53:36.802Z,39.10
2019-01-31T13:55:29.657Z,44.60
2019-01-31T13:56:29.416Z,48.70
2019-01-31T13:58:22.754Z,46.50
2019-01-31T13:59:22.510Z,45.20
2019-01-31T14:01:15.067Z,47.30
2019-01-31T14:02:15.081Z,47.20
2019-01-31T14:04:06.696Z,42.00
2019-01-31T14:05:06.719Z,43.00
2019-01-31T14:06:59.225Z,43.80
2019-01-31T14:07:59.286Z,45.70
2019-01-31T14:09:52.364Z,44.80
2019-01-31T14:10:52.649Z,43.00
2019-01-31T14:12:44.954Z,44.00
2019-01-31T14:13:44.933Z,43.20
2019-01-31T14:15:38.321Z,43.90
2019-01-31T14:16:47.201Z,43.00
2019-01-31T14:18:31.623Z,38.00
2019-01-31T14:19:31.434Z,41.10
2019-01-31T14:21:24.509Z,45.50
2019-01-31T14:22:24.297Z,39.80
2019-01-31T14:24:17.082Z,38.50
2019-01-31T14:25:16.588Z,41.00
2019-01-31T14:27:09.298Z,42.60
2019-01-31T14:28:09.045Z,41.10
2019-01-31T14:30:01.597Z,45.40
2019-01-31T14:31:01.579Z,44.30
2019-01-31T14:32:53.995Z,44.60
2019-01-31T14:33:53.703Z,42.50
2019-01-31T14:35:46.304Z,46.30
2019-01-31T14:36:46.024Z,44.90
2019-01-31T14:38:39.617Z,38.00
2019-01-31T14:39:39.365Z,40.60
2019-01-31T14:41:33.138Z,42.70
2019-01-31T14:42:32.972Z,41.40
2019-01-31T14:44:26.351Z,45.30
2019-01-31T14:45:26.066Z,42.80
2019-01-31T14:47:19.896Z,45.30
2019-01-31T14:48:19.640Z,44.70
2019-01-31T14:50:11.786Z,46.40
2019-01-31T14:51:12.028Z,49.90
2019-01-31T14:53:04.540Z,43.00
2019-01-31T14:54:04.082Z,44.10
2019-01-31T14:55:56.451Z,41.70
2019-01-31T14:56:56.443Z,40.90
2019-01-31T14:58:49.019Z,47.60
2019-01-31T14:59:49.013Z,43.40
2019-01-31T15:01:42.136Z,51.30
2019-01-31T15:02:42.381Z,47.50
2019-01-31T15:04:34.684Z,47.30
2019-01-31T15:05:36.737Z,51.10
2019-01-31T15:07:28.073Z,57.00
2019-01-31T15:08:27.789Z,50.00
2019-01-31T15:10:21.620Z,45.20
2019-01-31T15:11:21.173Z,49.10
2019-01-31T15:13:14.097Z,45.30
2019-01-31T15:14:14.079Z,46.60
2019-01-31T15:16:06.435Z,56.50
2019-01-31T15:17:06.198Z,51.60
2019-01-31T15:18:58.836Z,48.80
2019-01-31T15:19:58.583Z,47.50
2019-01-31T15:21:52.147Z,47.70
2019-01-31T15:22:52.115Z,54.90
2019-01-31T15:24:45.537Z,50.00
2019-01-31T15:25:45.276Z,46.50
2019-01-31T15:27:37.331Z,51.80
2019-01-31T15:28:37.383Z,52.00
2019-01-31T15:30:29.472Z,54.50
2019-01-31T15:31:29.417Z,50.90
2019-01-31T15:33:23.011Z,60.40
2019-01-31T15:34:23.021Z,51.70
2019-01-31T15:36:15.407Z,49.30
2019-01-31T15:37:15.334Z,55.80
2019-01-31T15:39:07.705Z,51.60
2019-01-31T15:40:07.699Z,48.80
2019-01-31T15:41:59.805Z,54.40
2019-01-31T15:43:00.033Z,54.30
2019-01-31T15:44:52.693Z,48.40
2019-01-31T15:45:52.720Z,48.10
2019-01-31T15:47:45.635Z,49.90
2019-01-31T15:48:45.384Z,50.30
2019-01-31T15:50:39.139Z,47.20
2019-01-31T15:51:38.955Z,56.40
2019-01-31T15:53:32.075Z,52.30
2019-01-31T15:54:32.313Z,51.90
2019-01-31T15:56:24.623Z,54.30
2019-01-31T15:57:24.619Z,50.50
2019-01-31T15:59:17.967Z,58.20
2019-01-31T16:00:17.989Z,54.20
2019-01-31T16:02:10.568Z,56.60
2019-01-31T16:03:10.265Z,55.10
2019-01-31T16:05:02.815Z,55.90
2019-01-31T16:06:03.064Z,55.70
2019-01-31T16:07:55.888Z,52.30
2019-01-31T16:08:55.970Z,51.10
2019-01-31T16:10:49.228Z,55.80
2019-01-31T16:11:48.985Z,57.90
2019-01-31T16:13:42.848Z,60.00
2019-01-31T16:14:42.333Z,62.60
2019-01-31T16:16:34.955Z,60.80
2019-01-31T16:17:34.956Z,55.20
2019-01-31T16:19:26.782Z,53.30
2019-01-31T16:20:26.751Z,56.90
2019-01-31T16:22:18.866Z,56.90
2019-01-31T16:23:19.105Z,58.30
2019-01-31T16:25:12.536Z,52.50
2019-01-31T16:26:12.430Z,60.30
2019-01-31T16:28:04.562Z,61.80
2019-01-31T16:29:04.837Z,59.90
2019-01-31T16:30:57.427Z,62.30
2019-01-31T16:31:57.127Z,59.50
2019-01-31T16:33:49.273Z,59.30
2019-01-31T16:34:49.230Z,62.00
2019-01-31T16:36:43.087Z,60.40
2019-01-31T16:37:42.588Z,57.60
2019-01-31T16:39:35.965Z,59.90
2019-01-31T16:40:36.157Z,62.80
2019-01-31T16:42:28.765Z,63.50
2019-01-31T16:43:28.261Z,63.70
2019-01-31T16:45:21.657Z,61.10
2019-01-31T16:46:21.612Z,64.80
2019-01-31T16:48:14.160Z,63.90
2019-01-31T16:49:13.948Z,61.80
2019-01-31T16:51:07.558Z,62.20
2019-01-31T16:52:07.327Z,58.70
2019-01-31T16:54:00.090Z,62.20
2019-01-31T16:54:59.652Z,64.00
2019-01-31T16:56:53.236Z,55.50
2019-01-31T16:57:52.993Z,58.60
2019-01-31T16:59:45.772Z,59.70
2019-01-31T17:00:45.580Z,58.90
2019-01-31T17:02:38.241Z,59.60
2019-01-31T17:03:38.271Z,57.80
2019-01-31T17:05:31.833Z,63.60
2019-01-31T17:06:31.374Z,62.20
2019-01-31T17:08:23.249Z,58.80
2019-01-31T17:09:23.204Z,60.20
2019-01-31T17:11:16.822Z,68.60
2019-01-31T17:12:16.571Z,59.80
2019-01-31T17:14:10.783Z,59.10
2019-01-31T17:15:17.666Z,64.20
2019-01-31T17:17:02.716Z,59.00
2019-01-31T17:18:02.256Z,60.70
2019-01-31T17:19:55.622Z,71.00
2019-01-31T17:20:55.610Z,71.30
2019-01-31T17:22:48.433Z,61.00
2019-01-31T17:23:47.920Z,63.20
2019-01-31T17:25:41.258Z,54.70
2019-01-31T17:26:41.489Z,59.80
2019-01-31T17:28:35.114Z,69.30
2019-01-31T17:29:34.627Z,71.70
2019-01-31T17:31:27.025Z,61.60
2019-01-31T17:32:27.170Z,59.20
2019-01-31T17:34:20.692Z,68.80
2019-01-31T17:35:20.304Z,68.60
2019-01-31T17:37:13.638Z,68.30
2019-01-31T17:38:13.659Z,69.80
2019-01-31T17:40:06.450Z,69.70
2019-01-31T17:41:06.217Z,65.30
2019-01-31T17:42:58.523Z,68.80
2019-01-31T17:43:58.532Z,70.40
2019-01-31T17:45:52.099Z,69.10
2019-01-31T17:46:51.891Z,69.80
2019-01-31T17:48:44.774Z,64.80
2019-01-31T17:49:44.506Z,70.30
2019-01-31T17:51:37.355Z,67.60
2019-01-31T17:52:37.140Z,70.20
2019-01-31T17:54:29.204Z,72.60
2019-01-31T17:55:29.440Z,69.20
2019-01-31T17:57:22.040Z,67.00
2019-01-31T17:58:21.513Z,65.60
2019-01-31T18:00:13.860Z,66.10
2019-01-31T18:01:13.882Z,69.30
2019-01-31T18:03:06.680Z,71.20
2019-01-31T18:04:06.453Z,83.80
2019-01-31T18:05:59.556Z,73.20
2019-01-31T18:06:59.828Z,76.20
2019-01-31T18:08:53.136Z,72.00
2019-01-31T18:09:53.188Z,70.10
2019-01-31T18:11:45.264Z,67.10
2019-01-31T18:12:45.489Z,66.70
2019-01-31T18:14:39.059Z,73.80
2019-01-31T18:15:42.071Z,78.30
2019-01-31T18:17:30.613Z,76.20
2019-01-31T18:18:30.428Z,80.70
2019-01-31T18:20:24.291Z,84.90
2019-01-31T18:21:24.024Z,86.70
2019-01-31T18:23:16.326Z,79.40
2019-01-31T18:24:16.328Z,84.70
2019-01-31T18:26:09.676Z,84.30
2019-01-31T18:27:09.698Z,85.20
2019-01-31T18:29:02.048Z,79.40
2019-01-31T18:30:02.016Z,82.20
2019-01-31T18:31:54.396Z,80.10
2019-01-31T18:32:54.390Z,82.40
2019-01-31T18:34:47.500Z,78.80
2019-01-31T18:35:47.486Z,82.30
2019-01-31T18:37:41.275Z,73.00